createdAt,value
2023-02-01T00:03:58.357Z,7.13
2023-02-01T00:09:01.218Z,7.12
2023-02-01T00:14:05.534Z,7.10
2023-02-01T00:19:11.330Z,7.11
2023-02-01T00:24:36.356Z,7.04
2023-02-01T00:29:40.641Z,7.02
2023-02-01T00:34:43.627Z,7.10
2023-02-01T00:39:46.482Z,7.11
2023-02-01T00:44:51.194Z,7.14
2023-02-01T00:49:54.077Z,7.12
2023-02-01T00:54:57.006Z,7.13
2023-02-01T01:00:01.217Z,7.16
2023-02-01T01:05:04.095Z,7.13
2023-02-01T01:10:07.805Z,7.22
2023-02-01T01:15:12.918Z,7.28
2023-02-01T01:20:15.854Z,7.30
2023-02-01T01:25:18.675Z,7.41
2023-02-01T01:30:23.522Z,7.36
2023-02-01T01:35:26.557Z,7.41
2023-02-01T01:40:30.232Z,7.36
2023-02-01T01:45:35.991Z,7.41
2023-02-01T01:50:42.723Z,7.37
2023-02-01T01:55:47.471Z,7.27
2023-02-01T02:00:51.728Z,7.22
2023-02-01T02:05:57.647Z,7.08
2023-02-01T02:11:03.612Z,6.99
2023-02-01T02:16:19.525Z,7.07
2023-02-01T02:21:37.580Z,7.07
2023-02-01T02:27:01.978Z,7.02
2023-02-01T02:32:40.411Z,6.92
2023-02-01T02:37:48.191Z,6.91
2023-02-01T02:43:12.521Z,6.90
2023-02-01T02:48:21.234Z,6.88
2023-02-01T02:53:44.270Z,6.91
2023-02-01T02:59:05.716Z,6.74
2023-02-01T03:04:10.628Z,6.52
2023-02-01T03:09:22.971Z,6.46
2023-02-01T03:14:28.898Z,6.51
2023-02-01T03:19:34.155Z,6.51
2023-02-01T03:24:41.400Z,6.67
2023-02-01T03:29:48.209Z,6.76
2023-02-01T03:34:51.810Z,6.72
2023-02-01T03:40:02.625Z,6.64
2023-02-01T03:45:11.855Z,6.68
2023-02-01T03:50:16.676Z,6.80
2023-02-01T03:55:23.294Z,6.72
2023-02-01T04:00:28.236Z,6.73
2023-02-01T04:05:33.087Z,6.72
2023-02-01T04:10:41.000Z,6.76
2023-02-01T04:15:44.774Z,6.81
2023-02-01T04:20:47.548Z,6.86
2023-02-01T04:25:51.940Z,6.88
2023-02-01T04:30:56.236Z,6.90
2023-02-01T04:35:59.114Z,6.92
2023-02-01T04:41:03.291Z,6.93
2023-02-01T04:46:06.627Z,6.94
2023-02-01T04:51:10.857Z,6.98
2023-02-01T04:56:15.091Z,6.99
2023-02-01T05:01:17.962Z,7.01
2023-02-01T05:06:20.846Z,7.08
2023-02-01T05:11:41.816Z,7.08
2023-02-01T05:16:44.747Z,7.09
2023-02-01T05:21:47.521Z,7.07
2023-02-01T05:26:51.863Z,7.10
2023-02-01T05:31:54.938Z,7.07
2023-02-01T05:36:57.844Z,7.05
2023-02-01T05:42:03.179Z,6.95
2023-02-01T05:47:06.327Z,6.82
2023-02-01T05:52:09.255Z,6.65
2023-02-01T05:57:13.875Z,6.65
2023-02-01T06:02:16.849Z,6.61
2023-02-01T06:07:19.751Z,6.57
2023-02-01T06:12:23.996Z,6.51
2023-02-01T06:17:26.979Z,6.46
2023-02-01T06:22:29.791Z,6.44
2023-02-01T06:27:34.152Z,6.47
2023-02-01T06:32:37.015Z,6.52
2023-02-01T06:37:39.826Z,6.55
2023-02-01T06:42:43.989Z,6.55
2023-02-01T06:47:46.809Z,6.53
2023-02-01T06:52:49.648Z,6.52
2023-02-01T06:57:56.610Z,6.53
2023-02-01T07:02:59.884Z,6.61
2023-02-01T07:08:02.752Z,6.65
2023-02-01T07:13:08.975Z,6.68
2023-02-01T07:18:11.931Z,6.71
2023-02-01T07:23:14.812Z,6.71
2023-02-01T07:28:19.220Z,6.54
2023-02-01T07:33:24.005Z,6.56
2023-02-01T07:38:27.465Z,6.54
2023-02-01T07:43:31.888Z,6.56
2023-02-01T07:48:35.778Z,6.62
2023-02-01T07:53:42.075Z,6.73
2023-02-01T07:58:49.413Z,6.81
2023-02-01T08:03:54.325Z,6.90
2023-02-01T08:08:59.846Z,6.91
2023-02-01T08:14:04.112Z,6.99
2023-02-01T08:19:29.937Z,7.10
2023-02-01T08:24:32.917Z,7.13
2023-02-01T08:29:37.240Z,7.27
2023-02-01T08:34:40.105Z,7.37
2023-02-01T08:39:46.797Z,7.36
2023-02-01T08:44:54.753Z,7.37
2023-02-01T08:49:57.677Z,7.40
2023-02-01T08:55:02.328Z,7.45
2023-02-01T09:00:09.380Z,7.38
2023-02-01T09:05:12.956Z,7.39
2023-02-01T09:10:18.896Z,7.42
2023-02-01T09:15:25.296Z,7.37
2023-02-01T09:20:28.256Z,7.37
2023-02-01T09:25:31.108Z,7.11
2023-02-01T09:30:35.766Z,7.07
2023-02-01T09:35:39.147Z,7.02
2023-02-01T09:40:44.226Z,6.97
2023-02-01T09:45:54.995Z,6.86
2023-02-01T09:51:00.136Z,6.79
2023-02-01T09:56:07.659Z,6.76
2023-02-01T10:01:21.578Z,6.76
2023-02-01T10:06:32.867Z,6.83
2023-02-01T10:11:50.123Z,6.99
2023-02-01T10:16:59.120Z,7.13
2023-02-01T10:22:04.281Z,7.27
2023-02-01T10:27:15.155Z,7.26
2023-02-01T10:32:21.698Z,7.11
2023-02-01T10:37:32.259Z,7.05
2023-02-01T10:42:35.264Z,7.10
2023-02-01T10:47:39.827Z,7.22
2023-02-01T10:52:46.757Z,7.36
2023-02-01T10:57:57.954Z,7.52
2023-02-01T11:03:02.329Z,7.64
2023-02-01T11:08:05.518Z,7.52
2023-02-01T11:13:17.234Z,7.41
2023-02-01T11:18:27.832Z,7.51
2023-02-01T11:23:34.459Z,7.58
2023-02-01T11:28:37.870Z,7.69
2023-02-01T11:33:52.921Z,7.83
2023-02-01T11:39:09.677Z,7.83
2023-02-01T11:44:23.800Z,7.88
2023-02-01T11:49:29.532Z,7.86
2023-02-01T11:54:43.701Z,7.91
2023-02-01T12:00:01.226Z,7.85
2023-02-01T12:05:17.245Z,7.89
2023-02-01T12:10:30.625Z,7.86
2023-02-01T12:15:48.456Z,7.95
2023-02-01T12:21:07.966Z,7.99
2023-02-01T12:26:38.855Z,8.06
2023-02-01T12:31:51.079Z,8.19
2023-02-01T12:37:01.470Z,8.30
2023-02-01T12:42:06.910Z,8.42
2023-02-01T12:47:19.567Z,8.50
2023-02-01T12:52:34.377Z,8.38
2023-02-01T12:57:40.024Z,8.45
2023-02-01T13:02:45.633Z,8.54
2023-02-01T13:07:53.779Z,8.48
2023-02-01T13:13:01.412Z,8.55
2023-02-01T13:18:07.626Z,8.63
2023-02-01T13:23:17.993Z,8.69
2023-02-01T13:28:26.480Z,8.77
2023-02-01T13:33:53.727Z,8.72
2023-02-01T13:39:25.908Z,8.79
2023-02-01T13:44:33.082Z,8.69
2023-02-01T13:49:40.689Z,8.77
2023-02-01T13:54:44.934Z,8.89
2023-02-01T13:59:53.269Z,8.88
2023-02-01T14:04:56.248Z,8.77
2023-02-01T14:10:02.268Z,8.57
2023-02-01T14:15:26.744Z,8.44
2023-02-01T14:20:44.704Z,8.26
2023-02-01T14:26:03.880Z,8.16
2023-02-01T14:31:18.511Z,7.89
2023-02-01T14:36:22.777Z,7.64
2023-02-01T14:41:33.583Z,7.22
2023-02-01T14:47:05.575Z,7.07
2023-02-01T14:52:14.071Z,7.30
2023-02-01T14:57:21.186Z,7.29
2023-02-01T15:02:26.978Z,7.52
2023-02-01T15:07:31.093Z,7.86
2023-02-01T15:12:45.407Z,7.93
2023-02-01T15:17:55.719Z,7.99
2023-02-01T15:23:00.291Z,7.99
2023-02-01T15:28:08.023Z,7.92
2023-02-01T15:33:20.307Z,8.01
2023-02-01T15:38:40.919Z,8.05
2023-02-01T15:43:48.792Z,8.13
2023-02-01T15:48:56.386Z,8.19
2023-02-01T15:54:02.036Z,8.25
2023-02-01T15:59:08.696Z,7.60
2023-02-01T16:04:19.409Z,7.00
2023-02-01T16:09:23.701Z,6.68
2023-02-01T16:14:28.536Z,6.65
2023-02-01T16:19:33.915Z,6.66
2023-02-01T16:24:36.827Z,6.67
2023-02-01T16:29:42.187Z,6.74
2023-02-01T16:34:46.256Z,6.89
2023-02-01T16:39:51.821Z,7.09
2023-02-01T16:44:56.127Z,7.28
2023-02-01T16:49:59.090Z,7.37
2023-02-01T16:55:01.960Z,7.42
2023-02-01T17:00:22.332Z,7.43
2023-02-01T17:05:29.807Z,7.44
2023-02-01T17:10:34.371Z,7.44
2023-02-01T17:15:39.464Z,7.37
2023-02-01T17:20:43.508Z,7.60
2023-02-01T17:25:49.281Z,7.63
2023-02-01T17:30:53.618Z,7.66
2023-02-01T17:35:57.289Z,7.60
2023-02-01T17:41:00.295Z,7.49
2023-02-01T17:46:07.294Z,7.50
2023-02-01T17:51:16.784Z,7.48
2023-02-01T17:56:21.423Z,7.33
2023-02-01T18:01:26.049Z,7.22
2023-02-01T18:06:30.702Z,7.22
2023-02-01T18:11:33.698Z,7.27
2023-02-01T18:16:38.257Z,7.32
2023-02-01T18:21:43.391Z,7.41
2023-02-01T18:26:46.238Z,7.51
2023-02-01T18:31:50.885Z,7.61
2023-02-01T18:36:53.906Z,7.66
2023-02-01T18:41:56.711Z,7.78
2023-02-01T18:47:01.626Z,7.86
2023-02-01T18:52:05.988Z,7.91
2023-02-01T18:57:09.380Z,8.05
2023-02-01T19:02:14.975Z,8.11
2023-02-01T19:07:17.931Z,8.18
2023-02-01T19:12:22.422Z,8.27
2023-02-01T19:17:26.668Z,8.30
2023-02-01T19:22:29.453Z,8.33
2023-02-01T19:27:32.283Z,8.38
2023-02-01T19:32:36.585Z,8.38
2023-02-01T19:37:41.369Z,8.28
2023-02-01T19:42:44.306Z,8.31
2023-02-01T19:47:48.594Z,8.30
2023-02-01T19:52:51.509Z,8.29
2023-02-01T19:57:54.276Z,8.31
2023-02-01T20:02:58.453Z,8.32
2023-02-01T20:08:01.564Z,8.31
2023-02-01T20:13:04.403Z,8.27
2023-02-01T20:18:08.662Z,8.22
2023-02-01T20:23:11.567Z,8.27
2023-02-01T20:28:15.281Z,8.25
2023-02-01T20:33:19.707Z,8.18
2023-02-01T20:38:22.626Z,8.18
2023-02-01T20:43:25.659Z,8.15
2023-02-01T20:48:30.647Z,8.13
2023-02-01T20:53:33.472Z,8.01
2023-02-01T20:58:36.336Z,7.98
2023-02-01T21:03:40.759Z,7.97
2023-02-01T21:08:45.579Z,7.94
2023-02-01T21:13:51.584Z,7.88
2023-02-01T21:18:55.785Z,7.82
2023-02-01T21:23:59.259Z,7.74
2023-02-01T21:29:02.058Z,7.73
2023-02-01T21:34:06.803Z,7.69
2023-02-01T21:39:12.103Z,7.71
2023-02-01T21:44:14.949Z,7.67
2023-02-01T21:49:19.295Z,7.68
2023-02-01T21:54:22.197Z,7.67
2023-02-01T21:59:25.001Z,7.73
2023-02-01T22:04:29.152Z,7.79
2023-02-01T22:09:32.066Z,7.81
2023-02-01T22:14:35.028Z,7.88
2023-02-01T22:19:39.257Z,7.96
2023-02-01T22:24:42.087Z,8.01
2023-02-01T22:29:44.987Z,8.06
2023-02-01T22:34:49.295Z,8.03
2023-02-01T22:39:52.143Z,7.93
2023-02-01T22:44:55.308Z,7.91
2023-02-01T22:49:59.519Z,7.93
2023-02-01T22:55:02.405Z,7.89
2023-02-01T23:00:06.932Z,7.82
2023-02-01T23:05:11.509Z,7.79
2023-02-01T23:10:14.454Z,7.74
2023-02-01T23:15:18.101Z,7.73
2023-02-01T23:20:22.844Z,7.81
2023-02-01T23:25:26.174Z,7.91
2023-02-01T23:30:29.181Z,7.99
2023-02-01T23:35:33.397Z,8.06
2023-02-01T23:40:36.223Z,8.07
2023-02-01T23:45:39.020Z,8.11
2023-02-01T23:50:43.159Z,8.13
2023-02-01T23:55:45.946Z,8.12
